Time;durP1;ratioP1;P1;durP2;ratioP2;P2;SDS_P1;SDS_P2;PMS_P1;PMS_P2;Temp;Humidity;BMP_temperature;BMP_pressure;BME280_temperature;BME280_humidity;BME280_pressure;Samples;Min_cycle;Max_cycle;Signal;HPM_P1;HPM_P2
2022/06/10 00:00:52;;;;;;;;;5.00;4.50;;;;;20.59;51.33;101997.13;2412448;28;45561;-77
2022/06/10 00:02:02;;;;;;;;;4.75;3.75;;;;;20.57;51.51;101996.31;2412840;28;46497;-77
2022/06/10 00:03:14;;;;;;;;;8.00;5.00;;;;;20.56;51.87;101995.47;2413026;28;44725;-77
2022/06/10 00:04:26;;;;;;;;;8.00;4.75;;;;;20.54;51.85;101994.72;2412559;28;46390;-77
2022/06/10 00:05:37;;;;;;;;;3.00;3.00;;;;;20.54;51.22;101994.72;2413037;28;45244;-77
2022/06/10 00:06:47;;;;;;;;;5.50;4.25;;;;;20.52;52.11;101996.56;2412397;28;45430;-77
2022/06/10 00:07:57;;;;;;;;;3.00;3.00;;;;;20.51;52.01;101994.88;2412366;28;45250;-77
2022/06/10 00:09:08;;;;;;;;;4.50;4.25;;;;;20.51;51.92;101994.00;2411956;28;45337;-77
2022/06/10 00:10:24;;;;;;;;;3.75;3.75;;;;;20.48;52.32;101995.03;2412763;28;44718;-77
2022/06/10 00:11:34;;;;;;;;;4.75;3.50;;;;;20.49;51.95;101990.56;2412681;28;46843;-77
2022/06/10 00:12:46;;;;;;;;;3.75;3.75;;;;;20.48;52.04;102000.38;2413022;28;45140;-77
2022/06/10 00:13:56;;;;;;;;;4.00;4.00;;;;;20.44;52.56;101993.50;2412478;28;46372;-77
2022/06/10 00:15:08;;;;;;;;;4.00;3.25;;;;;20.44;52.45;101997.03;2413012;28;45221;-76
2022/06/10 00:16:20;;;;;;;;;5.00;3.25;;;;;20.43;52.61;101995.28;2420897;28;47116;-77
2022/06/10 00:17:31;;;;;;;;;4.50;3.75;;;;;20.41;52.42;101991.84;2419184;28;45358;-76
2022/06/10 06:03:13;;;;;;;;;6.00;5.00;;;;;19.09;59.44;102074.91;2949588;23;46500;31
2022/06/10 06:04:24;;;;;;;;;6.50;4.00;;;;;19.10;59.16;102071.31;2397178;28;46470;-75
2022/06/10 06:05:34;;;;;;;;;6.00;5.00;;;;;19.14;59.23;102075.56;2402498;28;45242;-75
2022/06/10 06:06:44;;;;;;;;;7.00;6.00;;;;;19.16;59.02;102078.19;2402704;28;45536;-76
2022/06/10 06:07:56;;;;;;;;;6.50;4.25;;;;;19.20;59.04;102082.44;2402577;28;45402;-75
2022/06/10 06:09:07;;;;;;;;;5.00;5.00;;;;;19.22;58.84;102084.09;2402701;28;45189;-75
2022/06/10 06:10:21;;;;;;;;;6.25;5.00;;;;;19.26;59.08;102082.13;2403005;28;45215;-75
2022/06/10 06:11:32;;;;;;;;;4.75;4.00;;;;;19.30;58.87;102086.38;2411290;28;47983;-75
2022/06/10 06:12:42;;;;;;;;;5.75;4.50;;;;;19.33;58.81;102085.38;2408247;28;44749;-75
2022/06/10 06:13:53;;;;;;;;;4.25;3.00;;;;;19.35;58.67;102086.16;2401918;28;45609;-75
2022/06/10 06:15:03;;;;;;;;;4.00;4.00;;;;;19.37;58.91;102083.41;2402529;28;45454;-75
2022/06/10 06:16:16;;;;;;;;;4.00;4.00;;;;;19.40;58.51;102088.59;2401642;28;46184;-75
2022/06/10 06:17:27;;;;;;;;;2.50;2.50;;;;;19.43;58.22;102085.78;2401280;28;44770;-75
2022/06/10 06:18:37;;;;;;;;;3.75;3.00;;;;;19.45;58.19;102086.56;2396324;28;45295;-75
2022/06/10 06:19:48;;;;;;;;;3.00;3.00;;;;;19.49;58.03;102088.13;2398440;28;45456;-75
2022/06/10 06:20:59;;;;;;;;;3.00;3.00;;;;;19.51;58.26;102082.72;2400499;28;45598;-75
2022/06/10 06:22:09;;;;;;;;;4.00;3.00;;;;;19.55;57.77;102084.31;2403424;28;45301;-75
2022/06/10 06:23:20;;;;;;;;;3.50;3.00;;;;;19.57;58.21;102079.75;2407737;28;45426;-75
2022/06/10 06:24:30;;;;;;;;;5.75;3.00;;;;;19.60;57.84;102084.94;2398994;28;45558;-75
2022/06/10 06:25:41;;;;;;;;;3.00;2.75;;;;;19.61;57.50;102080.44;2402311;28;45788;-77
2022/06/10 06:26:52;;;;;;;;;3.75;3.25;;;;;19.64;57.62;102085.63;2402816;28;44678;-78
2022/06/10 06:28:02;;;;;;;;;2.25;1.75;;;;;19.66;57.16;102083.75;2402354;28;47981;-77
2022/06/10 06:29:13;;;;;;;;;7.00;3.00;;;;;19.67;57.40;102085.50;2401959;28;45465;-76
2022/06/10 06:30:33;;;;;;;;;3.00;3.00;;;;;19.72;57.15;102090.59;2401681;28;48420;-76
2022/06/10 06:31:43;;;;;;;;;3.25;3.25;;;;;19.74;56.98;102092.25;2402314;28;45305;-76
2022/06/10 06:32:55;;;;;;;;;4.25;3.00;;;;;19.76;56.83;102097.50;2401034;28;45531;-76
2022/06/10 06:34:06;;;;;;;;;5.50;3.75;;;;;19.75;57.16;102083.31;2399695;28;45177;-76
2022/06/10 06:35:16;;;;;;;;;5.00;3.00;;;;;19.77;56.87;102089.44;2400476;28;46093;-76
2022/06/10 06:36:31;;;;;;;;;5.00;2.75;;;;;19.81;56.96;102083.91;2400915;28;45467;-76
2022/06/10 06:37:41;;;;;;;;;3.75;3.75;;;;;19.82;56.70;102091.84;2399920;28;45511;-76
2022/06/10 06:38:52;;;;;;;;;2.50;2.50;;;;;19.85;56.90;102088.16;2400934;28;45707;-76
2022/06/10 06:40:03;;;;;;;;;3.00;3.00;;;;;19.87;57.02;102091.63;2400514;28;46640;-76
2022/06/10 06:41:14;;;;;;;;;4.00;4.00;;;;;19.88;57.03;102091.53;2402070;28;44754;-76
2022/06/10 06:42:25;;;;;;;;;3.25;3.00;;;;;19.90;56.88;102089.63;2401343;28;45536;-76
2022/06/10 06:43:35;;;;;;;;;5.00;3.00;;;;;19.92;56.84;102088.72;2400931;28;45360;-76
2022/06/10 06:44:46;;;;;;;;;7.00;4.25;;;;;19.93;56.72;102091.28;2399482;28;45522;-76
2022/06/10 06:45:56;;;;;;;;;2.25;2.25;;;;;19.94;56.67;102092.16;2401621;28;45258;-77
2022/06/10 06:47:13;;;;;;;;;4.00;3.00;;;;;19.95;56.70;102097.41;2399369;28;48696;-76
2022/06/10 06:48:23;;;;;;;;;4.00;3.00;;;;;19.97;56.56;102094.69;2400574;28;45543;-75
2022/06/10 06:49:33;;;;;;;;;2.50;2.50;;;;;19.98;56.55;102094.59;2401366;28;45451;-75
2022/06/10 06:50:47;;;;;;;;;4.00;2.25;;;;;19.99;56.52;102091.00;2400887;28;45521;-76
2022/06/10 06:51:57;;;;;;;;;3.75;3.00;;;;;20.01;56.22;102088.22;2400626;28;46458;-76
2022/06/10 06:53:08;;;;;;;;;5.75;3.00;;;;;20.05;56.54;102091.63;2400669;28;45423;-76
2022/06/10 06:54:19;;;;;;;;;3.00;2.75;;;;;20.07;56.32;102092.41;2400973;28;45317;-76
2022/06/10 06:55:29;;;;;;;;;3.00;2.50;;;;;20.09;56.37;102090.50;2401222;28;45434;-76
2022/06/10 06:56:40;;;;;;;;;3.25;3.25;;;;;20.12;56.35;102099.22;2400745;28;46607;-76
2022/06/10 06:57:51;;;;;;;;;4.25;2.75;;;;;20.16;56.36;102086.59;2401548;28;45371;-75
2022/06/10 06:59:03;;;;;;;;;4.50;3.00;;;;;20.17;56.13;102093.69;2402603;28;45301;-76
2022/06/10 07:00:16;;;;;;;;;6.25;3.00;;;;;20.19;56.46;102086.44;2402858;28;45296;-76
2022/06/10 07:01:26;;;;;;;;;2.75;2.00;;;;;20.20;56.29;102090.81;2401593;28;45514;-76
2022/06/10 07:02:37;;;;;;;;;3.75;3.75;;;;;20.22;56.52;102085.44;2401520;28;45419;-76
2022/06/10 07:03:48;;;;;;;;;3.00;3.00;;;;;20.26;56.36;102091.44;2400782;28;46439;-76
2022/06/10 07:04:58;;;;;;;;;2.25;2.25;;;;;20.27;56.36;102083.38;2400571;28;45474;-76
2022/06/10 07:06:10;;;;;;;;;3.25;2.50;;;;;20.30;56.32;102085.00;2403752;28;46258;-76
2022/06/10 07:07:20;;;;;;;;;3.75;3.75;;;;;20.31;56.32;102084.94;2397598;28;45474;-76
2022/06/10 07:08:31;;;;;;;;;4.50;3.00;;;;;20.35;56.15;102088.28;2398579;28;46274;-76
2022/06/10 07:09:41;;;;;;;;;3.00;3.00;;;;;20.38;56.01;102092.59;2402708;28;45383;-76
2022/06/10 07:10:51;;;;;;;;;3.50;3.50;;;;;20.40;56.09;102094.25;2399876;28;46164;-76
2022/06/10 07:12:02;;;;;;;;;2.50;2.50;;;;;20.43;56.44;102086.06;2402326;28;45414;-76
2022/06/10 07:13:13;;;;;;;;;4.00;4.00;;;;;20.45;55.75;102089.53;2399344;28;45888;-77
2022/06/10 07:14:23;;;;;;;;;3.50;3.50;;;;;20.48;56.03;102091.16;2403644;28;45293;-76
2022/06/10 07:15:37;;;;;;;;;5.00;2.25;;;;;20.50;55.84;102093.75;2401697;28;45454;-76
2022/06/10 07:16:50;;;;;;;;;5.00;3.50;;;;;20.54;56.17;102096.19;2398479;28;45458;-76
2022/06/10 07:18:00;;;;;;;;;3.50;3.25;;;;;20.56;55.84;102098.78;2400935;28;45369;-76
2022/06/10 07:19:11;;;;;;;;;2.25;2.25;;;;;20.56;55.89;102093.44;2402403;28;44921;-76
2022/06/10 07:20:28;;;;;;;;;3.25;3.25;;;;;20.58;55.79;102097.75;2402947;28;45395;-76
2022/06/10 07:21:38;;;;;;;;;2.50;2.50;;;;;20.60;55.67;102092.31;2402029;28;45233;-76
2022/06/10 07:22:49;;;;;;;;;4.67;4.00;;;;;20.62;56.04;102087.75;2402940;28;46184;-76
2022/06/10 07:23:59;;;;;;;;;7.75;3.00;;;;;20.65;56.03;102092.91;2403608;28;45230;-76
2022/06/10 07:25:10;;;;;;;;;3.00;3.00;;;;;20.66;55.56;102094.66;2399516;28;46694;-76
2022/06/10 07:26:20;;;;;;;;;4.50;4.25;;;;;20.67;55.60;102084.81;2403700;28;45332;-76
2022/06/10 07:27:31;;;;;;;;;2.75;2.75;;;;;20.68;55.44;102082.06;2402824;28;45361;-76
2022/06/10 07:28:42;;;;;;;;;4.50;3.00;;;;;20.71;55.46;102081.03;2403500;28;45248;-76
2022/06/10 07:29:52;;;;;;;;;6.00;3.25;;;;;20.73;55.42;102081.81;2403081;28;45316;-76
2022/06/10 07:31:03;;;;;;;;;4.00;4.00;;;;;20.75;55.55;102084.38;2402562;28;45330;-77
2022/06/10 07:32:13;;;;;;;;;3.25;3.00;;;;;20.75;55.24;102084.38;2403125;28;46133;-77
2022/06/10 07:33:24;;;;;;;;;6.25;3.00;;;;;20.77;55.25;102087.84;2402621;28;45158;-76
2022/06/10 07:34:34;;;;;;;;;3.00;3.00;;;;;20.77;54.37;102091.38;2399283;28;45371;-76
2022/06/10 07:35:44;;;;;;;;;4.50;3.25;;;;;20.76;55.13;102089.66;2403187;28;44709;-76
2022/06/10 07:36:55;;;;;;;;;4.75;4.00;;;;;20.79;54.79;102088.63;2403440;28;46256;-76
2022/06/10 07:38:08;;;;;;;;;5.00;4.25;;;;;20.84;54.95;102097.22;2403316;28;44674;-77
2022/06/10 07:39:18;;;;;;;;;4.00;2.75;;;;;20.83;54.94;102100.88;2403046;28;45309;-76
2022/06/10 07:42:02;;;;;;;;;3.50;3.00;;;;;20.89;54.61;102105.88;2397753;28;45608;-76
2022/06/10 07:43:13;;;;;;;;;5.00;3.50;;;;;20.91;54.98;102106.63;2394890;28;45317;-76
2022/06/10 07:44:25;;;;;;;;;4.00;3.00;;;;;20.95;54.72;102110.00;2402721;28;45451;-76
2022/06/10 07:45:36;;;;;;;;;3.00;3.00;;;;;20.98;54.26;102108.97;2402817;28;45336;-76
2022/06/10 07:46:48;;;;;;;;;2.00;2.00;;;;;21.02;54.31;102113.22;2402161;28;46810;-76
2022/06/10 07:47:59;;;;;;;;;0.00;0.00;;;;;21.04;54.05;102110.50;2402263;28;45801;-76
2022/06/10 07:49:09;;;;;;;;;2.00;2.00;;;;;21.06;54.06;102104.13;2402793;28;45861;-76
2022/06/10 07:50:21;;;;;;;;;3.25;3.00;;;;;21.10;53.78;102104.78;2402987;28;45547;-76
2022/06/10 07:51:32;;;;;;;;;2.00;2.00;;;;;21.13;53.69;102102.81;2403103;28;46680;-76
2022/06/10 07:52:42;;;;;;;;;2.25;2.25;;;;;21.16;53.80;102106.25;2402327;28;45474;-76
2022/06/10 07:53:52;;;;;;;;;1.25;1.25;;;;;21.20;52.99;102111.34;2402064;28;47174;-76
2022/06/10 07:55:03;;;;;;;;;1.50;1.50;;;;;21.24;53.19;102110.22;2401222;28;45324;-76
2022/06/10 07:56:16;;;;;;;;;4.00;2.00;;;;;21.28;53.35;102104.69;2400114;28;45755;-76
2022/06/10 07:57:26;;;;;;;;;1.00;1.00;;;;;21.31;53.37;102094.66;2403637;28;45304;-76
2022/06/10 07:58:37;;;;;;;;;3.00;1.00;;;;;21.35;53.52;102093.56;2402645;28;46219;-76
2022/06/10 07:59:47;;;;;;;;;2.75;1.00;;;;;21.39;53.66;102101.38;2400499;28;45380;-76
2022/06/10 08:00:58;;;;;;;;;2.00;2.00;;;;;21.41;53.62;102096.84;2402378;28;48324;-76
2022/06/10 08:02:09;;;;;;;;;3.00;2.00;;;;;21.43;53.15;102089.59;2402293;28;45174;-76
2022/06/10 08:03:19;;;;;;;;;2.50;2.50;;;;;21.48;53.41;102098.19;2402238;28;45982;-76
2022/06/10 08:04:29;;;;;;;;;3.50;2.00;;;;;21.51;53.31;102095.31;2401742;28;45556;-76
2022/06/10 08:05:41;;;;;;;;;2.00;2.00;;;;;21.53;53.29;102093.41;2402253;28;45650;-76
2022/06/10 08:06:53;;;;;;;;;2.25;2.25;;;;;21.56;53.20;102098.59;2403253;28;45476;-76
2022/06/10 08:08:04;;;;;;;;;5.00;3.00;;;;;21.57;53.39;102092.31;2399817;28;47080;-76
2022/06/10 08:09:20;;;;;;;;;2.00;2.00;;;;;21.59;53.37;102085.06;2401926;28;45254;-76
2022/06/10 08:10:33;;;;;;;;;3.75;3.75;;;;;21.63;52.89;102093.75;2402244;28;48420;-76
2022/06/10 08:11:44;;;;;;;;;2.25;2.25;;;;;21.65;52.91;102091.00;2402033;28;45488;-76
2022/06/10 08:12:54;;;;;;;;;4.00;3.00;;;;;21.66;52.84;102098.03;2402180;28;46575;-76
2022/06/10 08:14:05;;;;;;;;;2.75;2.75;;;;;21.66;52.91;102095.38;2403361;28;45225;-76
2022/06/10 08:15:18;;;;;;;;;2.25;2.00;;;;;21.67;53.21;102091.75;2400501;28;45548;-76
2022/06/10 08:16:28;;;;;;;;;4.00;3.00;;;;;21.67;52.94;102089.94;2402487;28;44640;-76
2022/06/10 08:17:38;;;;;;;;;4.75;2.00;;;;;21.70;52.61;102091.59;2403209;28;46214;-76
2022/06/10 08:18:49;;;;;;;;;4.00;1.00;;;;;21.70;52.34;102086.22;2402157;28;44705;-76
2022/06/10 08:20:01;;;;;;;;;2.00;2.00;;;;;21.70;52.60;102089.75;2400877;28;46268;-76
2022/06/10 08:22:32;;;;;;;;;3.00;1.00;;;;;21.68;52.33;102088.16;2402353;28;45406;-76
2022/06/10 08:23:00;;;;;;;;;1.00;1.00;;;;;21.67;52.36;102089.09;2401025;28;45618;-76
2022/06/10 08:24:10;;;;;;;;;2.00;1.75;;;;;21.67;51.82;102089.09;2400230;28;45358;-76
2022/06/10 08:25:21;;;;;;;;;2.75;2.75;;;;;21.66;51.70;102080.19;2396467;28;47434;-76
2022/06/10 08:26:31;;;;;;;;;2.00;2.00;;;;;21.66;51.36;102082.88;2394289;28;45183;-76
2022/06/10 08:27:42;;;;;;;;;2.50;2.50;;;;;21.67;51.46;102083.72;2395086;28;45419;-76
2022/06/10 08:28:53;;;;;;;;;1.25;1.25;;;;;21.67;51.32;102091.75;2402314;28;45371;-76
2022/06/10 08:30:07;;;;;;;;;2.50;2.00;;;;;21.69;51.39;102092.53;2402653;28;46524;-76
2022/06/10 08:31:17;;;;;;;;;1.75;1.75;;;;;21.68;51.94;102088.16;2401158;28;44785;-76
2022/06/10 08:32:27;;;;;;;;;1.00;1.00;;;;;21.67;51.67;102092.63;2399741;28;45313;-76
2022/06/10 08:33:38;;;;;;;;;3.00;2.00;;;;;21.68;51.74;102096.16;2400289;28;45394;-76
2022/06/10 08:34:48;;;;;;;;;2.00;2.00;;;;;21.69;51.56;102087.16;2402787;28;45452;-76
2022/06/10 08:36:00;;;;;;;;;1.00;1.00;;;;;21.71;51.52;102095.97;2401595;28;45431;-76
2022/06/10 08:37:10;;;;;;;;;2.00;2.00;;;;;21.70;51.16;102084.41;2401837;28;48212;-76
2022/06/10 08:38:21;;;;;;;;;2.00;2.00;;;;;21.72;51.23;102086.13;2402308;28;44741;-76
2022/06/10 08:39:32;;;;;;;;;3.50;2.00;;;;;21.72;51.04;102086.13;2401985;28;46186;-76
2022/06/10 08:41:04;;;;;;;;;2.75;2.00;;;;;21.71;51.77;102079.91;2402823;28;45352;-76
2022/06/10 08:42:36;;;;;;;;;0.25;0.25;;;;;21.70;51.53;102076.38;2409155;28;47059;-76
2022/06/10 08:44:24;;;;;;;;;1.25;1.00;;;;;21.73;51.49;102077.16;2397393;28;45209;-76
2022/06/10 08:45:49;;;;;;;;;2.25;2.00;;;;;21.72;51.30;102070.09;2402138;28;45358;-76
2022/06/10 08:47:11;;;;;;;;;2.00;2.00;;;;;21.74;51.02;102078.88;2400151;28;45356;-75
2022/06/10 08:48:52;;;;;;;;;2.75;1.00;;;;;21.74;51.62;102079.75;2393594;28;45836;-77
2022/06/10 08:50:41;;;;;;;;;3.50;3.50;;;;;21.75;51.21;102077.94;2397910;28;45474;-77
2022/06/10 08:52:12;;;;;;;;;1.00;1.00;;;;;21.72;51.10;102073.63;2400511;28;47575;-76
2022/06/10 08:53:22;;;;;;;;;1.50;1.00;;;;;21.72;51.68;102075.44;2402068;28;45194;-76
2022/06/10 08:54:43;;;;;;;;;1.00;1.00;;;;;21.74;51.17;102078.88;2401342;28;47043;-76
2022/06/10 08:56:08;;;;;;;;;2.00;1.00;;;;;21.74;51.37;102085.09;2398293;28;45199;-76
2022/06/10 08:57:37;;;;;;;;;1.00;1.00;;;;;21.76;51.27;102075.16;2403258;28;45451;-75
2022/06/10 08:59:09;;;;;;;;;1.75;1.75;;;;;21.78;51.24;102081.28;2402444;28;45229;-76
2022/06/10 09:00:24;;;;;;;;;2.75;1.25;;;;;21.79;50.71;102072.31;2402653;28;46377;-76
2022/06/10 09:01:47;;;;;;;;;1.00;1.00;;;;;21.80;51.10;102082.03;2409700;28;45194;-76
2022/06/10 09:03:35;;;;;;;;;1.00;0.75;;;;;21.85;51.14;102086.28;2402628;28;45723;-76
2022/06/10 09:05:06;;;;;;;;;2.00;2.00;;;;;21.85;51.20;102087.13;2403035;28;45141;-76
2022/06/10 09:06:29;;;;;;;;;1.50;1.25;;;;;21.88;50.86;102086.09;2402135;28;45673;-76
2022/06/10 09:07:52;;;;;;;;;1.00;1.00;;;;;21.90;50.65;102089.56;2402864;28;45224;-76
2022/06/10 09:09:06;;;;;;;;;3.00;2.00;;;;;21.91;50.84;102078.75;2402978;28;45298;-75
2022/06/10 09:10:22;;;;;;;;;1.50;1.50;;;;;21.96;51.12;102078.47;2402964;28;44734;-76
2022/06/10 09:11:35;;;;;;;;;1.50;1.25;;;;;21.99;50.06;102082.78;2400674;28;48476;-75
2022/06/10 09:13:27;;;;;;;;;2.00;1.75;;;;;21.99;50.51;102085.47;2394967;28;45295;-75
2022/06/10 09:14:40;;;;;;;;;3.50;2.00;;;;;22.00;50.20;102080.00;2393354;28;45457;-75
2022/06/10 09:16:03;;;;;;;;;1.00;1.00;;;;;22.04;50.75;102075.34;2399793;28;45209;-75
2022/06/10 09:17:31;;;;;;;;;1.75;1.75;;;;;22.07;50.27;102076.97;2402626;28;46493;-75
2022/06/10 09:19:07;;;;;;;;;2.00;2.00;;;;;22.10;50.71;102066.91;2400659;28;44741;-76
2022/06/10 09:20:31;;;;;;;;;1.75;1.75;;;;;22.13;50.39;102074.75;2393599;28;46218;-76
2022/06/10 09:21:57;;;;;;;;;1.00;1.00;;;;;22.18;50.34;102070.94;2401291;28;44723;-76
2022/06/10 09:23:15;;;;;;;;;1.00;0.00;;;;;22.20;50.55;102069.88;2401407;28;45486;-76
2022/06/10 09:24:48;;;;;;;;;3.75;2.75;;;;;22.24;50.32;102076.78;2395168;28;45331;-76
2022/06/10 09:26:08;;;;;;;;;1.50;1.00;;;;;22.25;50.00;102074.94;2401958;28;45277;-76
2022/06/10 09:27:39;;;;;;;;;2.00;2.00;;;;;22.28;49.86;102076.59;2401716;28;45530;-76
2022/06/10 09:28:50;;;;;;;;;2.00;2.00;;;;;22.30;50.24;102080.88;2402379;28;45360;-76
2022/06/10 09:30:03;;;;;;;;;3.50;1.00;;;;;22.31;50.48;102079.06;2402370;28;44760;-76
2022/06/10 09:31:35;;;;;;;;;1.00;1.00;;;;;22.33;50.17;102077.16;2402469;28;45439;-76
2022/06/10 09:33:01;;;;;;;;;1.25;1.25;;;;;22.35;50.54;102073.44;2397917;28;45430;-76
2022/06/10 09:34:49;;;;;;;;;1.50;1.50;;;;;22.38;50.66;102067.03;2400905;28;47026;-76
2022/06/10 09:36:20;;;;;;;;;6.00;2.00;;;;;22.39;49.93;102068.75;2401661;28;45548;-76
2022/06/10 09:37:55;;;;;;;;;1.75;1.00;;;;;22.42;50.50;102071.22;2402696;28;45592;-76
2022/06/10 09:41:02;;;;;;;;;3.25;1.00;;;;;22.44;50.28;102074.69;2398657;28;45788;-76
2022/06/10 09:42:17;;;;;;;;;1.00;1.00;;;;;22.45;49.81;102080.88;2401989;28;45270;-75
2022/06/10 09:44:00;;;;;;;;;2.00;1.00;;;;;22.48;50.09;102073.53;2402216;28;45499;-76
2022/06/10 09:45:24;;;;;;;;;0.25;0.25;;;;;22.48;49.38;102078.88;2402545;28;44598;-76
2022/06/10 09:47:07;;;;;;;;;3.00;2.00;;;;;22.51;49.29;102071.63;2402206;28;46308;-76
2022/06/10 09:48:35;;;;;;;;;2.00;2.00;;;;;22.53;49.87;102072.38;2399556;28;45358;-76
2022/06/10 09:50:06;;;;;;;;;2.00;1.00;;;;;22.53;49.08;102069.69;2402339;28;45851;-76
2022/06/10 09:51:41;;;;;;;;;0.75;0.00;;;;;22.55;49.11;102081.16;2402878;28;44701;-76
2022/06/10 09:53:16;;;;;;;;;2.00;2.00;;;;;22.55;49.28;102082.03;2401930;28;45793;-76
2022/06/10 09:55:15;;;;;;;;;2.25;1.75;;;;;22.56;49.16;102077.53;2402085;28;45282;-76
2022/06/10 09:56:50;;;;;;;;;1.00;1.00;;;;;22.56;48.95;102070.38;2393109;28;46277;-76
2022/06/10 09:58:24;;;;;;;;;1.00;1.00;;;;;22.57;49.16;102084.63;2400721;28;45435;-75
2022/06/10 09:59:51;;;;;;;;;2.00;2.00;;;;;22.58;49.41;102091.69;2406217;28;47326;-76
2022/06/10 10:01:13;;;;;;;;;2.25;2.00;;;;;22.58;48.86;102084.53;2407040;28;45294;-76
2022/06/10 10:02:50;;;;;;;;;2.00;2.00;;;;;22.58;49.41;102084.53;2400609;28;47100;-75
2022/06/10 10:04:21;;;;;;;;;1.50;1.00;;;;;22.60;49.16;102077.25;2388026;28;48521;-76
2022/06/10 10:05:44;;;;;;;;;1.00;1.00;;;;;22.63;48.69;102086.91;2395696;28;46294;-76
2022/06/10 10:07:57;;;;;;;;;1.25;1.00;;;;;22.66;49.41;102088.53;2402730;28;45221;-77
2022/06/10 10:09:52;;;;;;;;;1.75;1.00;;;;;22.68;49.26;102084.81;2381822;28;45365;-76
2022/06/10 10:11:37;;;;;;;;;3.00;1.00;;;;;22.74;48.85;102090.75;2385286;28;44910;-76
2022/06/10 10:12:59;;;;;;;;;1.25;1.25;;;;;22.75;48.85;102089.78;2399648;28;47186;-76
2022/06/10 10:14:33;;;;;;;;;1.00;1.00;;;;;22.77;49.27;102088.72;2403455;28;45537;-76
2022/06/10 10:16:08;;;;;;;;;1.75;0.50;;;;;22.81;49.22;102086.72;2398527;28;46671;-76
2022/06/10 10:17:37;;;;;;;;;2.00;1.00;;;;;22.83;49.24;102082.13;2401825;28;45273;-76
2022/06/10 10:19:09;;;;;;;;;3.75;2.00;;;;;22.86;48.73;102084.63;2396965;28;45538;-76
2022/06/10 10:20:38;;;;;;;;;1.75;1.75;;;;;22.86;49.19;102089.97;2401798;28;45449;-76
2022/06/10 10:22:16;;;;;;;;;1.00;1.00;;;;;22.89;49.00;102083.56;2407872;28;46951;-76
2022/06/10 10:23:32;;;;;;;;;3.00;1.00;;;;;22.91;49.09;102093.22;2401889;28;45289;-76
2022/06/10 10:24:45;;;;;;;;;2.50;1.00;;;;;22.91;48.95;102085.19;2398832;28;47255;-76
2022/06/10 10:25:56;;;;;;;;;1.00;1.00;;;;;22.92;48.42;102086.03;2401780;28;45313;-76
2022/06/10 10:27:20;;;;;;;;;1.00;1.00;;;;;22.93;48.57;102079.72;2399554;28;47980;-75
2022/06/10 10:28:34;;;;;;;;;1.00;1.00;;;;;22.95;48.32;102084.97;2393905;28;45286;-75
2022/06/10 10:29:49;;;;;;;;;1.00;1.00;;;;;22.96;48.40;102081.34;2401392;28;46345;-75
2022/06/10 10:30:59;;;;;;;;;0.00;0.00;;;;;22.98;48.70;102080.28;2402570;28;45297;-76
2022/06/10 10:32:30;;;;;;;;;2.75;2.75;;;;;23.02;48.55;102078.25;2398766;28;45621;-76
2022/06/10 10:33:41;;;;;;;;;1.00;1.00;;;;;23.02;49.04;102081.78;2403646;28;44856;-76
2022/06/10 10:35:03;;;;;;;;;1.25;1.25;;;;;23.02;48.38;102073.75;2403448;28;45522;-76
2022/06/10 10:36:23;;;;;;;;;1.50;1.25;;;;;23.08;48.75;102074.31;2405080;28;45501;-76
2022/06/10 10:37:36;;;;;;;;;2.00;2.00;;;;;23.09;48.87;102073.34;2403001;28;46592;-76
2022/06/10 10:38:49;;;;;;;;;3.75;3.25;;;;;23.11;49.30;102069.59;2403676;28;45256;-76
2022/06/10 10:40:21;;;;;;;;;1.25;1.25;;;;;23.19;49.01;102071.75;2402812;28;46077;-76
2022/06/10 10:41:40;;;;;;;;;2.00;2.00;;;;;23.21;49.21;102069.00;2401272;28;45567;-77
2022/06/10 10:42:55;;;;;;;;;1.00;1.00;;;;;23.24;48.87;102074.13;2399175;28;48105;-76
2022/06/10 10:44:41;;;;;;;;;1.00;1.00;;;;;23.27;48.80;102073.94;2399963;28;45486;-76
2022/06/10 10:45:59;;;;;;;;;2.75;2.00;;;;;23.29;49.14;102076.50;2402201;28;45582;-76
2022/06/10 10:47:10;;;;;;;;;2.00;2.00;;;;;23.32;48.45;102070.94;2401960;28;45342;-76
2022/06/10 10:48:25;;;;;;;;;1.00;1.00;;;;;23.35;49.17;102076.97;2400009;28;46479;-76
2022/06/10 10:49:43;;;;;;;;;2.00;2.00;;;;;23.36;48.99;102067.97;2394181;28;45245;-76
2022/06/10 10:51:13;;;;;;;;;2.25;2.00;;;;;23.37;48.18;102069.69;2402402;28;45328;-76
2022/06/10 10:52:40;;;;;;;;;4.00;3.00;;;;;23.37;48.54;102080.41;2392569;28;45319;-76
2022/06/10 10:53:56;;;;;;;;;2.25;2.00;;;;;23.37;48.31;102085.78;2401514;28;47452;-77
2022/06/10 10:55:13;;;;;;;;;2.00;2.00;;;;;23.38;48.10;102075.91;2394268;28;44675;-76
2022/06/10 10:56:33;;;;;;;;;1.00;1.00;;;;;23.36;48.12;102073.31;2399053;28;45550;-76
2022/06/10 10:57:53;;;;;;;;;2.00;1.00;;;;;23.38;48.40;102074.06;2402857;28;45360;-76
2022/06/10 10:59:04;;;;;;;;;2.00;1.00;;;;;23.40;48.15;102067.75;2402298;28;45478;-76
2022/06/10 11:00:14;;;;;;;;;1.00;1.00;;;;;23.41;48.57;102067.66;2399102;28;45278;-76
2022/06/10 11:01:45;;;;;;;;;1.00;1.00;;;;;23.45;49.17;102071.88;2402492;28;46324;-76
2022/06/10 11:02:58;;;;;;;;;1.50;1.50;;;;;23.44;48.50;102070.13;2403307;28;45240;-76
2022/06/10 11:04:11;;;;;;;;;4.25;2.00;;;;;23.47;48.49;102074.44;2402330;28;46527;-76
2022/06/10 11:05:32;;;;;;;;;1.75;1.75;;;;;23.50;48.35;102076.94;2401023;28;45356;-76
2022/06/10 11:06:42;;;;;;;;;4.50;2.00;;;;;23.51;49.27;102080.50;2400426;28;47645;-76
2022/06/10 11:08:11;;;;;;;;;1.00;1.00;;;;;23.54;48.03;102085.63;2402660;28;45920;-76
2022/06/10 11:09:23;;;;;;;;;1.00;1.00;;;;;23.57;48.63;102074.69;2403350;28;45516;-76
2022/06/10 11:10:48;;;;;;;;;0.50;0.50;;;;;23.58;48.23;102073.75;2402107;28;45357;-76
2022/06/10 11:12:03;;;;;;;;;4.00;2.25;;;;;23.60;48.12;102070.00;2398147;28;45420;-76
2022/06/10 11:13:19;;;;;;;;;1.25;1.00;;;;;23.60;47.99;102075.38;2402835;28;44808;-76
2022/06/10 11:14:32;;;;;;;;;1.50;1.50;;;;;23.60;48.14;102080.72;2396721;28;45539;-75
2022/06/10 11:15:42;;;;;;;;;3.00;1.50;;;;;23.58;48.23;102077.28;2401610;28;45483;-76
2022/06/10 11:17:23;;;;;;;;;2.50;2.50;;;;;23.58;48.32;102079.94;2402814;28;45407;-76
2022/06/10 11:18:36;;;;;;;;;2.50;1.75;;;;;23.55;48.10;102064.09;2398327;28;46395;-76
2022/06/10 11:19:54;;;;;;;;;2.00;2.00;;;;;23.58;47.88;102079.13;2402711;28;46264;-76
2022/06/10 11:21:04;;;;;;;;;2.00;1.00;;;;;23.57;48.02;102078.25;2403565;28;45944;-76
2022/06/10 11:22:38;;;;;;;;;2.00;2.00;;;;;23.62;47.86;102074.38;2410179;28;48330;-75
2022/06/10 11:23:51;;;;;;;;;1.00;1.00;;;;;23.63;48.64;102073.44;2405761;28;45478;-75
2022/06/10 11:25:02;;;;;;;;;2.25;2.25;;;;;23.64;48.43;102077.81;2402747;28;45667;-76
2022/06/10 11:26:20;;;;;;;;;2.00;2.00;;;;;23.66;48.27;102074.06;2402076;28;45187;-76
2022/06/10 11:27:37;;;;;;;;;0.75;0.75;;;;;23.71;48.03;102079.13;2396935;28;45597;-76
2022/06/10 11:28:58;;;;;;;;;1.25;1.25;;;;;23.73;48.04;102068.28;2403441;28;45293;-76
2022/06/10 11:30:08;;;;;;;;;3.25;2.50;;;;;23.77;48.16;102069.78;2401647;28;47316;-76
2022/06/10 11:31:28;;;;;;;;;1.00;1.00;;;;;23.79;47.87;102074.09;2405373;28;45293;-76
2022/06/10 11:32:47;;;;;;;;;2.50;1.00;;;;;23.80;47.69;102070.47;2402498;28;46551;-76
2022/06/10 11:34:00;;;;;;;;;2.00;2.00;;;;;23.80;48.08;102073.16;2400754;28;44803;-76
2022/06/10 11:35:22;;;;;;;;;2.00;1.00;;;;;23.82;48.01;102073.03;2402800;28;45685;-76
2022/06/10 11:36:43;;;;;;;;;3.25;2.00;;;;;23.85;47.76;102077.31;2402721;28;45558;-75
2022/06/10 11:38:01;;;;;;;;;1.00;1.00;;;;;23.85;47.50;102075.50;2395682;28;46974;-75
2022/06/10 11:39:33;;;;;;;;;2.50;2.50;;;;;23.89;48.45;102068.94;2401276;28;45934;-75
2022/06/10 11:40:47;;;;;;;;;2.25;2.25;;;;;23.91;49.07;102071.53;2400975;28;45465;-75
2022/06/10 11:42:30;;;;;;;;;2.75;2.50;;;;;23.95;48.78;102067.69;2402330;28;45780;-75
2022/06/10 11:43:47;;;;;;;;;1.75;1.00;;;;;23.98;47.83;102066.59;2402455;28;47842;-75
2022/06/10 11:45:22;;;;;;;;;3.25;2.00;;;;;24.02;47.56;102066.28;2401391;28;45603;-76
2022/06/10 11:46:52;;;;;;;;;2.25;1.00;;;;;24.02;48.04;102068.97;2395513;28;45636;-76
2022/06/10 11:48:12;;;;;;;;;2.00;2.00;;;;;24.07;47.82;102063.28;2405647;28;45754;-76
2022/06/10 11:49:32;;;;;;;;;3.00;2.00;;;;;24.10;48.08;102064.88;2406652;28;46524;-75